createdAt,value
2023-02-05T00:01:24.411Z,5.52
2023-02-05T00:03:51.094Z,4.65
2023-02-05T00:06:18.101Z,3.67
2023-02-05T00:08:44.679Z,3.02
2023-02-05T00:11:11.534Z,2.53
2023-02-05T00:13:40.752Z,2.14
2023-02-05T00:16:18.348Z,2.42
2023-02-05T00:18:45.315Z,4.30
2023-02-05T00:21:13.183Z,5.38
2023-02-05T00:23:40.169Z,4.43
2023-02-05T00:26:08.143Z,3.45
2023-02-05T00:28:35.572Z,2.80
2023-02-05T00:31:19.481Z,2.31
2023-02-05T00:33:46.667Z,2.59
2023-02-05T00:36:14.334Z,4.27
2023-02-05T00:38:42.810Z,4.55
2023-02-05T00:41:11.055Z,3.62
2023-02-05T00:43:38.849Z,2.89
2023-02-05T00:46:06.299Z,2.34
2023-02-05T00:48:33.128Z,2.32
2023-02-05T00:50:59.813Z,4.00
2023-02-05T00:53:26.674Z,5.57
2023-02-05T00:55:53.301Z,5.24
2023-02-05T00:58:20.129Z,4.10
2023-02-05T01:00:47.311Z,3.27
2023-02-05T01:03:13.933Z,2.70
2023-02-05T01:05:40.644Z,2.24
2023-02-05T01:08:10.254Z,2.34
2023-02-05T01:10:37.982Z,4.11
2023-02-05T01:13:05.392Z,5.28
2023-02-05T01:15:32.475Z,4.39
2023-02-05T01:18:00.284Z,3.41
2023-02-05T01:20:27.158Z,2.73
2023-02-05T01:22:53.702Z,2.21
2023-02-05T01:25:20.327Z,2.23
2023-02-05T01:27:46.925Z,3.93
2023-02-05T01:30:14.015Z,5.27
2023-02-05T01:32:41.086Z,4.54
2023-02-05T01:35:08.514Z,3.49
2023-02-05T01:37:35.258Z,2.75
2023-02-05T01:40:02.191Z,2.23
2023-02-05T01:42:31.200Z,2.07
2023-02-05T01:45:22.440Z,3.64
2023-02-05T01:48:01.272Z,5.14
2023-02-05T01:50:28.984Z,4.14
2023-02-05T01:52:57.872Z,3.18
2023-02-05T01:55:24.617Z,2.50
2023-02-05T01:57:51.897Z,2.02
2023-02-05T02:00:19.899Z,2.41
2023-02-05T02:02:46.552Z,4.32
2023-02-05T02:05:16.636Z,5.36
2023-02-05T02:07:43.211Z,4.37
2023-02-05T02:10:12.662Z,3.34
2023-02-05T02:12:41.659Z,2.63
2023-02-05T02:15:17.443Z,2.12
2023-02-05T02:17:47.352Z,2.31
2023-02-05T02:20:28.085Z,4.18
2023-02-05T02:22:54.552Z,5.22
2023-02-05T02:25:42.530Z,4.17
2023-02-05T02:28:35.265Z,3.09
2023-02-05T02:31:21.477Z,2.35
2023-02-05T02:33:56.030Z,1.85
2023-02-05T02:37:01.845Z,2.65
2023-02-05T02:39:39.892Z,4.98
2023-02-05T02:42:22.026Z,4.86
2023-02-05T02:44:56.037Z,3.61
2023-02-05T02:47:26.429Z,2.78
2023-02-05T02:50:10.595Z,2.18
2023-02-05T02:52:40.565Z,2.06
2023-02-05T02:55:10.888Z,3.73
2023-02-05T02:57:39.914Z,4.95
2023-02-05T03:00:13.393Z,4.05
2023-02-05T03:02:40.760Z,3.03
2023-02-05T03:05:12.015Z,2.35
2023-02-05T03:07:44.095Z,1.83
2023-02-05T03:10:34.034Z,2.41
2023-02-05T03:13:00.549Z,4.60
2023-02-05T03:15:27.190Z,4.98
2023-02-05T03:17:54.347Z,3.85
2023-02-05T03:20:26.387Z,2.92
2023-02-05T03:22:53.039Z,2.27
2023-02-05T03:25:21.696Z,1.78
2023-02-05T03:27:51.345Z,2.37
2023-02-05T03:30:18.104Z,4.33
2023-02-05T03:33:02.487Z,4.66
2023-02-05T03:35:39.903Z,3.43
2023-02-05T03:38:30.772Z,2.52
2023-02-05T03:41:06.243Z,1.83
2023-02-05T03:43:55.536Z,1.39
2023-02-05T03:46:44.073Z,2.57
2023-02-05T03:49:42.459Z,4.56
2023-02-05T03:52:20.107Z,3.81
2023-02-05T03:55:09.024Z,2.72
2023-02-05T03:57:47.247Z,1.93
2023-02-05T04:00:14.780Z,1.47
2023-02-05T04:02:42.492Z,2.69
2023-02-05T04:05:09.076Z,4.49
2023-02-05T04:07:35.619Z,4.14
2023-02-05T04:10:02.463Z,3.02
2023-02-05T04:12:29.008Z,2.18
2023-02-05T04:14:55.546Z,1.61
2023-02-05T04:17:22.131Z,1.42
2023-02-05T04:19:48.677Z,3.04
2023-02-05T04:22:15.212Z,4.36
2023-02-05T04:24:41.778Z,3.51
2023-02-05T04:27:08.352Z,2.49
2023-02-05T04:29:34.932Z,1.77
2023-02-05T04:32:01.510Z,1.67
2023-02-05T04:34:28.329Z,3.44
2023-02-05T04:36:54.885Z,4.58
2023-02-05T04:39:21.440Z,3.62
2023-02-05T04:41:47.994Z,2.58
2023-02-05T04:44:14.539Z,1.86
2023-02-05T04:46:41.083Z,1.34
2023-02-05T04:49:07.684Z,1.40
2023-02-05T04:51:34.253Z,3.19
2023-02-05T04:54:00.901Z,4.11
2023-02-05T04:56:27.515Z,3.09
2023-02-05T04:58:54.102Z,2.12
2023-02-05T05:01:22.688Z,1.42
2023-02-05T05:03:50.261Z,0.89
2023-02-05T05:06:18.364Z,0.59
2023-02-05T05:08:45.217Z,1.93
2023-02-05T05:11:17.959Z,3.69
2023-02-05T05:13:44.836Z,3.21
2023-02-05T05:16:12.096Z,2.12
2023-02-05T05:18:39.635Z,1.35
2023-02-05T05:21:07.154Z,1.15
2023-02-05T05:23:34.595Z,2.83
2023-02-05T05:26:08.824Z,4.00
2023-02-05T05:28:36.140Z,3.03
2023-02-05T05:31:13.994Z,2.02
2023-02-05T05:33:40.611Z,1.28
2023-02-05T05:36:07.874Z,0.79
2023-02-05T05:38:35.074Z,1.58
2023-02-05T05:41:20.080Z,3.52
2023-02-05T05:43:47.355Z,3.69
2023-02-05T05:46:26.133Z,2.54
2023-02-05T05:48:56.029Z,1.61
2023-02-05T05:51:25.682Z,1.01
2023-02-05T05:53:52.744Z,0.69
2023-02-05T05:56:19.533Z,2.10
2023-02-05T05:58:47.323Z,3.59
2023-02-05T06:01:16.817Z,2.87
2023-02-05T06:03:43.361Z,1.85
2023-02-05T06:06:11.565Z,1.14
2023-02-05T06:08:38.511Z,0.78
2023-02-05T06:11:06.094Z,2.14
2023-02-05T06:13:34.105Z,3.69
2023-02-05T06:16:00.887Z,3.03
2023-02-05T06:18:27.812Z,1.97
2023-02-05T06:20:54.392Z,1.25
2023-02-05T06:23:20.948Z,0.99
2023-02-05T06:25:47.771Z,2.58
2023-02-05T06:28:14.363Z,4.11
2023-02-05T06:30:41.059Z,3.52
2023-02-05T06:33:07.648Z,2.41
2023-02-05T06:35:34.456Z,1.63
2023-02-05T06:38:01.359Z,1.08
2023-02-05T06:40:28.229Z,1.40
2023-02-05T06:42:55.142Z,3.62
2023-02-05T06:45:22.527Z,4.87
2023-02-05T06:47:52.133Z,3.72
2023-02-05T06:50:19.497Z,2.60
2023-02-05T06:52:46.055Z,1.83
2023-02-05T06:55:12.617Z,1.29
2023-02-05T06:57:39.303Z,1.47
2023-02-05T07:00:07.221Z,3.32
2023-02-05T07:02:33.966Z,4.20
2023-02-05T07:05:00.633Z,3.17
2023-02-05T07:07:27.677Z,2.20
2023-02-05T07:09:54.347Z,1.53
2023-02-05T07:12:21.348Z,1.03
2023-02-05T07:14:47.851Z,1.12
2023-02-05T07:17:14.378Z,2.91
2023-02-05T07:19:40.949Z,4.05
2023-02-05T07:22:07.713Z,3.14
2023-02-05T07:24:34.202Z,2.18
2023-02-05T07:27:00.845Z,1.50
2023-02-05T07:29:27.882Z,1.02
2023-02-05T07:31:54.581Z,1.81
2023-02-05T07:34:21.139Z,3.71
2023-02-05T07:36:52.174Z,4.03
2023-02-05T07:39:18.933Z,2.93
2023-02-05T07:41:45.766Z,2.05
2023-02-05T07:44:12.611Z,1.45
2023-02-05T07:46:39.572Z,1.53
2023-02-05T07:49:06.496Z,3.37
2023-02-05T07:51:33.712Z,4.54
2023-02-05T07:54:00.201Z,3.64
2023-02-05T07:56:26.716Z,2.67
2023-02-05T07:58:53.255Z,2.04
2023-02-05T08:01:19.808Z,1.77
2023-02-05T08:03:46.626Z,3.26
2023-02-05T08:06:15.603Z,4.64
2023-02-05T08:08:42.613Z,3.89
2023-02-05T08:11:17.319Z,2.97
2023-02-05T08:13:45.222Z,2.30
2023-02-05T08:16:14.891Z,2.18
2023-02-05T08:18:41.648Z,3.83
2023-02-05T08:21:08.160Z,5.14
2023-02-05T08:23:34.650Z,4.35
2023-02-05T08:26:01.244Z,3.38
2023-02-05T08:28:28.449Z,2.70
2023-02-05T08:30:55.858Z,2.26
2023-02-05T08:33:22.677Z,3.05
2023-02-05T08:35:49.293Z,5.02
2023-02-05T08:38:15.867Z,5.29
2023-02-05T08:40:42.460Z,4.25
2023-02-05T08:43:08.999Z,3.43
2023-02-05T08:45:36.326Z,2.89
2023-02-05T08:48:03.387Z,2.51
2023-02-05T08:50:29.930Z,3.08
2023-02-05T08:52:56.467Z,5.07
2023-02-05T08:55:23.031Z,5.68
2023-02-05T08:57:49.629Z,4.65
2023-02-05T09:00:16.584Z,3.83
2023-02-05T09:02:43.318Z,3.29
2023-02-05T09:05:10.452Z,2.91
2023-02-05T09:07:38.899Z,3.50
2023-02-05T09:10:08.700Z,5.48
2023-02-05T09:12:35.394Z,5.70
2023-02-05T09:15:02.159Z,4.73
2023-02-05T09:17:28.748Z,4.01
2023-02-05T09:19:55.470Z,3.52
2023-02-05T09:22:22.092Z,3.17
2023-02-05T09:24:48.953Z,3.92
2023-02-05T09:27:15.560Z,5.89
2023-02-05T09:29:42.060Z,6.13
2023-02-05T09:32:08.621Z,5.15
2023-02-05T09:34:35.443Z,4.41
2023-02-05T09:37:02.072Z,3.90
2023-02-05T09:40:17.371Z,3.55
2023-02-05T09:42:43.118Z,4.01
2023-02-05T09:45:45.991Z,6.31
2023-02-05T09:48:36.650Z,6.25
2023-02-05T09:51:04.003Z,5.18
2023-02-05T09:53:35.109Z,4.54
2023-02-05T09:56:02.569Z,4.08
2023-02-05T09:58:32.280Z,3.76
2023-02-05T10:01:41.117Z,3.49
2023-02-05T10:04:08.867Z,4.26
2023-02-05T10:06:42.607Z,6.35
2023-02-05T10:09:24.257Z,6.79
2023-02-05T10:12:23.195Z,5.71
2023-02-05T10:15:44.883Z,4.84
2023-02-05T10:19:10.303Z,4.23
2023-02-05T10:21:59.491Z,3.85
2023-02-05T10:25:02.130Z,4.34
2023-02-05T10:28:02.396Z,6.79
2023-02-05T10:31:10.038Z,6.77
2023-02-05T10:33:56.755Z,5.65
2023-02-05T10:36:26.225Z,5.02
2023-02-05T10:38:56.106Z,4.63
2023-02-05T10:41:39.037Z,4.36
2023-02-05T10:44:24.416Z,4.13
2023-02-05T10:46:54.593Z,3.95
2023-02-05T10:49:32.097Z,3.81
2023-02-05T10:51:58.619Z,4.18
2023-02-05T10:54:31.198Z,6.21
2023-02-05T10:56:58.197Z,7.28
2023-02-05T10:59:35.212Z,6.62
2023-02-05T11:02:09.102Z,6.05
2023-02-05T11:04:52.994Z,5.75
2023-02-05T11:07:38.274Z,5.59
2023-02-05T11:10:30.018Z,5.49
2023-02-05T11:13:18.948Z,5.45
2023-02-05T11:15:59.119Z,5.54
2023-02-05T11:18:40.737Z,5.70
2023-02-05T11:21:09.208Z,5.87
2023-02-05T11:23:42.382Z,5.98
2023-02-05T11:26:22.506Z,6.03
2023-02-05T11:28:49.830Z,5.99
2023-02-05T11:31:30.824Z,5.90
2023-02-05T11:34:19.313Z,5.78
2023-02-05T11:36:57.235Z,5.75
2023-02-05T11:39:35.976Z,5.82
2023-02-05T11:42:17.287Z,5.93
2023-02-05T11:44:58.791Z,6.08
2023-02-05T11:47:31.531Z,6.17
2023-02-05T11:49:58.731Z,6.14
2023-02-05T11:52:36.850Z,6.09
2023-02-05T11:55:05.551Z,6.06
2023-02-05T11:57:37.896Z,6.10
2023-02-05T12:00:15.777Z,6.16
2023-02-05T12:02:43.072Z,6.15
2023-02-05T12:05:19.287Z,6.21
2023-02-05T12:08:13.427Z,6.31
2023-02-05T12:11:56.503Z,6.45
2023-02-05T12:14:46.535Z,6.50
2023-02-05T12:17:33.283Z,6.38
2023-02-05T12:20:11.636Z,6.26
2023-02-05T12:23:01.454Z,6.08
2023-02-05T12:25:46.866Z,5.87
2023-02-05T12:28:49.387Z,5.63
2023-02-05T12:31:24.633Z,5.35
2023-02-05T12:34:17.143Z,5.13
2023-02-05T12:37:21.977Z,4.83
2023-02-05T12:40:05.489Z,4.67
2023-02-05T12:42:36.100Z,4.63
2023-02-05T12:45:30.464Z,4.64
2023-02-05T12:48:27.351Z,4.48
2023-02-05T12:51:48.071Z,4.35
2023-02-05T12:54:27.865Z,4.21
2023-02-05T12:57:26.322Z,4.07
2023-02-05T13:00:04.372Z,3.87
2023-02-05T13:02:52.081Z,3.73
2023-02-05T13:05:24.077Z,3.66
2023-02-05T13:08:34.592Z,3.61
2023-02-05T13:11:22.341Z,3.58
2023-02-05T13:14:08.609Z,3.52
2023-02-05T13:16:44.523Z,3.45
2023-02-05T13:19:33.449Z,3.47
2023-02-05T13:22:38.254Z,3.48
2023-02-05T13:25:44.247Z,3.51
2023-02-05T13:28:39.815Z,3.51
2023-02-05T13:31:50.752Z,3.51
2023-02-05T13:34:18.682Z,3.52
2023-02-05T13:37:22.317Z,3.53
2023-02-05T13:40:35.287Z,3.55
2023-02-05T13:44:04.949Z,3.49
2023-02-05T13:46:59.845Z,3.35
2023-02-05T13:49:58.534Z,3.23
2023-02-05T13:52:52.550Z,3.12
2023-02-05T13:55:36.910Z,3.03
2023-02-05T13:58:28.584Z,2.95
2023-02-05T14:01:04.711Z,2.87
2023-02-05T14:03:40.636Z,2.82
2023-02-05T14:06:28.127Z,2.79
2023-02-05T14:09:07.146Z,2.75
2023-02-05T14:11:56.779Z,2.72
2023-02-05T14:14:38.466Z,2.71
2023-02-05T14:17:30.467Z,2.69
2023-02-05T14:20:00.094Z,2.67
2023-02-05T14:22:41.672Z,2.65
2023-02-05T14:25:40.904Z,2.63
2023-02-05T14:28:16.799Z,2.61
2023-02-05T14:30:58.352Z,2.59
2023-02-05T14:33:43.352Z,2.56
2023-02-05T14:36:23.624Z,2.54
2023-02-05T14:38:56.773Z,2.51
2023-02-05T14:41:38.911Z,2.48
2023-02-05T14:44:16.080Z,2.46
2023-02-05T14:47:02.021Z,2.43
2023-02-05T14:49:37.246Z,2.39
2023-02-05T14:52:30.859Z,2.33
2023-02-05T14:55:17.008Z,2.27
2023-02-05T14:57:50.588Z,2.20
2023-02-05T15:00:36.754Z,2.15
2023-02-05T15:03:15.928Z,2.09
2023-02-05T15:05:46.013Z,2.03
2023-02-05T15:08:35.544Z,1.97
2023-02-05T15:11:33.895Z,1.90
2023-02-05T15:14:21.943Z,1.82
2023-02-05T15:17:13.318Z,1.75
2023-02-05T15:19:44.411Z,1.68
2023-02-05T15:22:34.573Z,1.62
2023-02-05T15:25:08.489Z,1.54
2023-02-05T15:27:44.265Z,1.90
2023-02-05T15:30:22.486Z,4.01
2023-02-05T15:33:00.106Z,5.38
2023-02-05T15:35:29.977Z,4.53
2023-02-05T15:38:09.564Z,3.75
2023-02-05T15:40:39.928Z,3.21
2023-02-05T15:43:20.153Z,2.87
2023-02-05T15:45:46.810Z,2.60
2023-02-05T15:48:17.298Z,2.38
2023-02-05T15:50:58.395Z,2.19
2023-02-05T15:53:33.797Z,2.01
2023-02-05T15:56:24.640Z,1.83
2023-02-05T15:58:55.972Z,2.18
2023-02-05T16:01:27.704Z,4.19
2023-02-05T16:03:54.402Z,5.48
2023-02-05T16:06:23.729Z,4.66
2023-02-05T16:08:51.988Z,3.78
2023-02-05T16:11:33.900Z,3.18
2023-02-05T16:14:20.356Z,2.74
2023-02-05T16:17:08.537Z,2.41
2023-02-05T16:19:53.441Z,2.12
2023-02-05T16:22:37.094Z,2.78
2023-02-05T16:25:30.474Z,5.02
2023-02-05T16:28:00.176Z,5.87
2023-02-05T16:31:04.544Z,4.77
2023-02-05T16:33:53.679Z,3.70
2023-02-05T16:36:39.266Z,3.09
2023-02-05T16:39:24.969Z,2.66
2023-02-05T16:42:16.770Z,3.29
2023-02-05T16:44:46.892Z,5.41
2023-02-05T16:47:15.885Z,5.69
2023-02-05T16:49:45.426Z,4.61
2023-02-05T16:52:35.925Z,3.76
2023-02-05T16:55:42.773Z,3.11
2023-02-05T16:58:22.628Z,2.60
2023-02-05T17:01:01.254Z,2.81
2023-02-05T17:03:39.076Z,4.70
2023-02-05T17:06:13.614Z,5.61
2023-02-05T17:08:41.084Z,4.58
2023-02-05T17:11:39.543Z,3.70
2023-02-05T17:14:27.093Z,2.99
2023-02-05T17:17:01.538Z,2.52
2023-02-05T17:19:31.404Z,3.02
2023-02-05T17:22:13.319Z,4.90
2023-02-05T17:24:48.674Z,5.68
2023-02-05T17:27:16.648Z,4.56
2023-02-05T17:29:43.694Z,3.65
2023-02-05T17:32:16.470Z,3.04
2023-02-05T17:34:44.043Z,2.57
2023-02-05T17:37:13.790Z,2.21
2023-02-05T17:39:43.727Z,2.57
2023-02-05T17:42:20.653Z,4.44
2023-02-05T17:44:47.642Z,5.43
2023-02-05T17:47:14.690Z,4.45
2023-02-05T17:49:41.948Z,3.52
2023-02-05T17:52:12.012Z,2.89
2023-02-05T17:54:38.718Z,2.44
2023-02-05T17:57:21.617Z,2.07
2023-02-05T17:59:48.926Z,2.42
2023-02-05T18:02:16.260Z,4.34
2023-02-05T18:04:44.238Z,5.38
2023-02-05T18:07:44.120Z,4.41
2023-02-05T18:10:17.827Z,3.31
2023-02-05T18:12:44.770Z,2.69
2023-02-05T18:15:11.713Z,2.24
2023-02-05T18:17:38.506Z,2.38
2023-02-05T18:20:05.521Z,4.21
2023-02-05T18:22:32.790Z,5.27
2023-02-05T18:24:59.720Z,4.34
2023-02-05T18:27:26.938Z,3.40
2023-02-05T18:29:53.884Z,2.74
2023-02-05T18:32:21.374Z,2.27
2023-02-05T18:34:48.005Z,2.34
2023-02-05T18:37:17.305Z,4.11
2023-02-05T18:39:45.169Z,5.21
2023-02-05T18:42:14.961Z,4.26
2023-02-05T18:44:41.657Z,3.30
2023-02-05T18:47:09.474Z,2.64
2023-02-05T18:49:36.308Z,2.17
2023-02-05T18:52:04.904Z,2.18
2023-02-05T18:54:31.500Z,3.90
2023-02-05T18:57:00.191Z,5.06
2023-02-05T18:59:26.859Z,4.16
2023-02-05T19:01:53.638Z,3.22
2023-02-05T19:04:23.733Z,2.56
2023-02-05T19:06:54.496Z,2.07
2023-02-05T19:09:23.506Z,2.11
2023-02-05T19:11:52.247Z,3.89
2023-02-05T19:14:21.452Z,5.02
2023-02-05T19:16:49.371Z,4.08
2023-02-05T19:19:22.578Z,3.11
2023-02-05T19:21:55.094Z,2.42
2023-02-05T19:24:21.867Z,1.93
2023-02-05T19:26:53.670Z,1.92
2023-02-05T19:29:20.399Z,3.68
2023-02-05T19:31:52.703Z,4.82
2023-02-05T19:34:21.486Z,3.89
2023-02-05T19:36:48.204Z,2.95
2023-02-05T19:39:14.961Z,2.28
2023-02-05T19:41:44.801Z,1.81
2023-02-05T19:44:18.081Z,1.86
2023-02-05T19:46:46.062Z,3.71
2023-02-05T19:49:16.814Z,4.80
2023-02-05T19:51:45.422Z,3.84
2023-02-05T19:54:14.256Z,2.88
2023-02-05T19:56:42.474Z,2.22
2023-02-05T19:59:09.922Z,1.75
2023-02-05T20:01:38.667Z,1.89
2023-02-05T20:04:14.560Z,3.74
2023-02-05T20:06:45.194Z,4.81
2023-02-05T20:09:12.870Z,3.80
2023-02-05T20:11:42.457Z,2.86
2023-02-05T20:14:10.004Z,2.22
2023-02-05T20:16:39.378Z,1.74
2023-02-05T20:19:08.975Z,2.29
2023-02-05T20:21:35.719Z,4.26
2023-02-05T20:24:03.913Z,4.88
2023-02-05T20:26:31.341Z,3.78
2023-02-05T20:29:16.220Z,2.89
2023-02-05T20:31:49.292Z,2.21
2023-02-05T20:34:22.704Z,1.84
2023-02-05T20:36:53.359Z,3.13
2023-02-05T20:39:21.873Z,4.61
2023-02-05T20:41:50.874Z,3.91
2023-02-05T20:44:18.212Z,2.94
2023-02-05T20:46:44.888Z,2.26
2023-02-05T20:49:11.645Z,1.75
2023-02-05T20:51:38.614Z,2.13
2023-02-05T20:54:06.065Z,4.00
2023-02-05T20:56:35.864Z,4.94
2023-02-05T20:59:05.674Z,3.91
2023-02-05T21:01:38.096Z,2.93
2023-02-05T21:04:07.050Z,2.23
2023-02-05T21:06:37.845Z,1.74
2023-02-05T21:09:06.665Z,1.87
2023-02-05T21:11:33.536Z,3.71
2023-02-05T21:14:00.442Z,4.71
2023-02-05T21:16:27.416Z,3.72
2023-02-05T21:18:54.978Z,2.75
2023-02-05T21:21:24.928Z,2.07
2023-02-05T21:24:00.339Z,1.56
2023-02-05T21:26:31.510Z,1.77
2023-02-05T21:29:01.203Z,3.68
2023-02-05T21:31:33.337Z,4.80
2023-02-05T21:34:05.557Z,3.75
2023-02-05T21:36:32.354Z,2.73
2023-02-05T21:38:59.039Z,2.05
2023-02-05T21:41:26.289Z,1.55
2023-02-05T21:43:56.648Z,1.67
2023-02-05T21:46:24.511Z,3.54
2023-02-05T21:48:53.970Z,4.70
2023-02-05T21:51:23.628Z,3.72
2023-02-05T21:53:59.161Z,2.70
2023-02-05T21:56:35.506Z,1.96
2023-02-05T21:59:02.258Z,1.44
2023-02-05T22:01:31.752Z,2.25
2023-02-05T22:04:01.650Z,4.16
2023-02-05T22:06:31.409Z,4.21
2023-02-05T22:09:00.165Z,3.10
2023-02-05T22:11:27.507Z,2.26
2023-02-05T22:13:55.697Z,1.68
2023-02-05T22:16:25.542Z,1.58
2023-02-05T22:18:53.360Z,3.25
2023-02-05T22:21:23.659Z,4.48
2023-02-05T22:23:53.021Z,3.59
2023-02-05T22:26:23.788Z,2.61
2023-02-05T22:28:50.480Z,1.93
2023-02-05T22:31:20.055Z,1.44
2023-02-05T22:33:48.971Z,1.71
2023-02-05T22:36:19.498Z,3.60
2023-02-05T22:38:47.607Z,4.63
2023-02-05T22:41:24.352Z,3.65
2023-02-05T22:43:53.627Z,2.63
2023-02-05T22:46:24.168Z,1.97
2023-02-05T22:48:51.834Z,1.54
2023-02-05T22:51:22.473Z,2.58
2023-02-05T22:53:49.835Z,4.45
2023-02-05T22:56:16.763Z,4.53
2023-02-05T22:58:45.934Z,3.41
2023-02-05T23:01:16.956Z,2.56
2023-02-05T23:03:45.037Z,1.97
2023-02-05T23:06:16.813Z,1.97
2023-02-05T23:08:49.451Z,3.73
2023-02-05T23:11:16.127Z,4.84
2023-02-05T23:13:43.004Z,3.90
2023-02-05T23:16:14.520Z,2.96
2023-02-05T23:18:42.148Z,2.28
2023-02-05T23:21:12.787Z,1.79
2023-02-05T23:23:40.286Z,1.96
2023-02-05T23:26:19.553Z,3.79
2023-02-05T23:28:47.317Z,4.81
2023-02-05T23:31:14.496Z,3.80
2023-02-05T23:33:41.378Z,2.86
2023-02-05T23:36:09.141Z,2.23
2023-02-05T23:38:36.086Z,1.78
2023-02-05T23:41:03.346Z,2.70
2023-02-05T23:43:35.064Z,4.55
2023-02-05T23:46:02.384Z,4.63
2023-02-05T23:48:29.305Z,3.51
2023-02-05T23:50:58.528Z,2.65
2023-02-05T23:53:25.758Z,2.06
2023-02-05T23:55:53.142Z,1.66
2023-02-05T23:58:23.240Z,2.64
